Time;durP1;ratioP1;P1;durP2;ratioP2;P2;SDS_P1;SDS_P2;PMS_P1;PMS_P2;Temp;Humidity;BMP_temperature;BMP_pressure;BME280_temperature;BME280_humidity;BME280_pressure;Samples;Min_cycle;Max_cycle;Signal;HPM_P1;HPM_P2
2022/03/05 04:57:00;;;;;;;;;;;-1.90;86.40;;;;;;5217350;22;19925;-35
2022/03/05 04:59:32;;;;;;;;;;;-2.80;87.00;;;;;;5184509;28;19948;-36
2022/03/05 05:02:04;;;;;;;;;;;-2.60;87.20;;;;;;5161769;28;20276;-35
2022/03/05 05:04:37;;;;;;;;;;;-2.30;87.20;;;;;;5165677;28;20345;-37
2022/03/05 05:07:09;;;;;;;;;;;-3.20;87.00;;;;;;5182998;28;19929;-36
2022/03/05 05:09:42;;;;;;;;;;;-3.00;87.00;;;;;;5181875;28;20008;-35
2022/03/05 05:12:14;;;;;;;;;;;-2.50;87.20;;;;;;5172535;28;20308;-36
2022/03/05 05:14:47;;;;;;;;;;;-2.10;87.70;;;;;;5178095;28;19937;-36
2022/03/05 05:17:19;;;;;;;;;;;-2.10;88.10;;;;;;5183783;28;19980;-36
2022/03/05 05:19:51;;;;;;;;;;;-2.30;88.10;;;;;;5181237;28;19928;-36
2022/03/05 05:22:23;;;;;;;;;;;-2.20;87.80;;;;;;5182886;28;19972;-37
2022/03/05 05:24:55;;;;;;;;;;;-2.50;88.30;;;;;;5183473;28;19925;-37
2022/03/05 05:27:28;;;;;;;;;;;-2.50;88.40;;;;;;5178749;28;20256;-36
2022/03/05 05:30:00;;;;;;;;;;;-3.10;88.20;;;;;;5182996;28;19925;-36
2022/03/05 05:32:33;;;;;;;;;;;-2.10;88.20;;;;;;5169160;28;19932;-35
2022/03/05 05:35:06;;;;;;;;;;;-2.30;88.30;;;;;;5187736;28;19925;-35
2022/03/05 05:37:38;;;;;;;;;;;-3.00;87.80;;;;;;5166692;28;19925;-37
2022/03/05 05:40:10;;;;;;;;;;;-2.60;87.70;;;;;;5182046;28;20392;-36
2022/03/05 05:42:43;;;;;;;;;;;-3.10;88.00;;;;;;5185936;28;19932;-36
2022/03/05 05:45:15;;;;;;;;;;;-3.00;88.00;;;;;;5183355;28;20388;-36
2022/03/05 05:47:48;;;;;;;;;;;-3.10;88.30;;;;;;5183753;28;19949;-36
2022/03/05 05:50:20;;;;;;;;;;;-3.00;88.40;;;;;;5166699;28;19922;-35
2022/03/05 05:52:52;;;;;;;;;;;-2.40;89.10;;;;;;5182263;28;19928;-36
2022/03/05 05:55:24;;;;;;;;;;;-2.90;88.20;;;;;;5186000;28;19936;-36
2022/03/05 05:57:57;;;;;;;;;;;-2.20;88.70;;;;;;5185756;28;19936;-36
2022/03/05 06:00:29;;;;;;;;;;;-3.20;88.10;;;;;;5183037;28;19943;-36
2022/03/05 06:03:02;;;;;;;;;;;-3.10;87.90;;;;;;5186927;28;19921;-37
2022/03/05 06:05:34;;;;;;;;;;;-3.10;87.20;;;;;;5186115;28;19924;-36
2022/03/05 06:08:06;;;;;;;;;;;-2.30;88.40;;;;;;5185375;28;20297;-36
2022/03/05 06:10:38;;;;;;;;;;;-2.40;88.80;;;;;;5186266;28;19921;-36
2022/03/05 06:13:11;;;;;;;;;;;-2.20;89.20;;;;;;5186160;28;20304;-36
2022/03/05 06:15:44;;;;;;;;;;;-3.80;88.30;;;;;;5180061;28;20273;-35
2022/03/05 06:18:16;;;;;;;;;;;-2.30;89.50;;;;;;5182989;28;20120;-35
2022/03/05 06:20:53;;;;;;;;;;;-2.50;88.90;;;;;;5167534;28;20321;-35
2022/03/05 06:23:25;;;;;;;;;;;-3.70;88.90;;;;;;5183401;28;19936;-37
2022/03/05 06:25:57;;;;;;;;;;;-2.40;90.00;;;;;;5181885;28;20379;-36
2022/03/05 06:28:30;;;;;;;;;;;-2.20;89.80;;;;;;5177633;28;19928;-35
2022/03/05 06:31:02;;;;;;;;;;;-2.20;90.00;;;;;;5185723;28;19925;-35
2022/03/05 06:33:35;;;;;;;;;;;-3.10;89.50;;;;;;5185020;28;19925;-36
2022/03/05 06:36:07;;;;;;;;;;;-2.70;89.10;;;;;;5180810;28;19936;-36
2022/03/05 06:38:39;;;;;;;;;;;-3.00;89.50;;;;;;5185705;28;19925;-36
2022/03/05 06:41:12;;;;;;;;;;;-4.30;89.60;;;;;;5188663;28;19928;-36
2022/03/05 06:43:44;;;;;;;;;;;-2.40;90.10;;;;;;5184273;28;19933;-35
2022/03/05 06:46:16;;;;;;;;;;;-1.50;91.10;;;;;;5184179;28;19932;-37
2022/03/05 06:48:49;;;;;;;;;;;-1.80;91.10;;;;;;5182308;28;19948;-36
2022/03/05 06:51:21;;;;;;;;;;;-1.90;91.70;;;;;;5181371;28;20340;-36
2022/03/05 06:53:53;;;;;;;;;;;-2.60;91.60;;;;;;5174572;28;19921;-35
2022/03/05 06:56:26;;;;;;;;;;;-1.50;92.20;;;;;;5184783;28;19925;-36
2022/03/05 06:58:58;;;;;;;;;;;-2.80;91.90;;;;;;5172231;28;19925;-36
2022/03/05 07:01:30;;;;;;;;;;;-2.10;92.80;;;;;;5189365;28;20316;-36
2022/03/05 07:04:03;;;;;;;;;;;-1.30;93.40;;;;;;5190393;28;19921;-36
2022/03/05 07:06:37;;;;;;;;;;;-2.30;93.40;;;;;;5191646;28;19921;-35
2022/03/05 07:09:09;;;;;;;;;;;-1.10;93.40;;;;;;5187734;28;19921;-35
2022/03/05 07:11:41;;;;;;;;;;;-2.20;94.30;;;;;;5173051;28;19920;-35
2022/03/05 07:14:14;;;;;;;;;;;-0.50;94.80;;;;;;5188842;28;19925;-36
2022/03/05 07:16:46;;;;;;;;;;;-0.10;95.10;;;;;;5189736;28;19921;-36
2022/03/05 07:19:18;;;;;;;;;;;-1.70;95.70;;;;;;5187191;28;20304;-36
2022/03/05 07:21:51;;;;;;;;;;;-1.70;95.90;;;;;;5190301;28;19922;-36
2022/03/05 07:24:23;;;;;;;;;;;-1.60;96.40;;;;;;5188758;28;19925;-37
2022/03/05 07:26:55;;;;;;;;;;;-1.60;96.30;;;;;;5186333;28;19925;-36
2022/03/05 07:29:28;;;;;;;;;;;-1.00;96.30;;;;;;5188071;28;19921;-36
2022/03/05 07:32:03;;;;;;;;;;;-0.80;96.00;;;;;;5173188;28;19932;-36
2022/03/05 07:34:36;;;;;;;;;;;-1.30;96.30;;;;;;5171045;28;20385;-36
2022/03/05 07:37:08;;;;;;;;;;;-1.40;96.30;;;;;;5188436;28;20102;-37
2022/03/05 07:39:40;;;;;;;;;;;-1.30;96.30;;;;;;5187473;28;19929;-37
2022/03/05 07:42:13;;;;;;;;;;;-0.60;95.70;;;;;;5171837;28;19975;-37
2022/03/05 07:44:45;;;;;;;;;;;-2.10;95.60;;;;;;5185877;28;19925;-35
2022/03/05 07:47:17;;;;;;;;;;;-1.40;96.20;;;;;;5188754;28;19932;-36
2022/03/05 07:49:49;;;;;;;;;;;0.20;96.30;;;;;;5187153;28;19921;-37
2022/03/05 07:52:22;;;;;;;;;;;-1.40;96.10;;;;;;5187799;28;19921;-35
2022/03/05 07:54:54;;;;;;;;;;;-0.40;96.40;;;;;;5185072;28;20372;-36
2022/03/05 07:57:26;;;;;;;;;;;-1.20;96.40;;;;;;5168096;28;19925;-36
2022/03/05 07:59:59;;;;;;;;;;;0.50;96.70;;;;;;5169351;28;19929;-39
2022/03/05 08:02:51;;;;;;;;;;;0.00;96.50;;;;;;5186705;28;19936;-36
2022/03/05 08:05:23;;;;;;;;;;;0.70;96.50;;;;;;5188617;28;20412;-37
2022/03/05 08:07:56;;;;;;;;;;;-1.70;96.60;;;;;;5186426;28;20389;-36
2022/03/05 08:10:28;;;;;;;;;;;-0.20;96.80;;;;;;5184989;28;20502;-36
2022/03/05 08:13:00;;;;;;;;;;;-0.20;96.50;;;;;;5185077;28;19925;-35
2022/03/05 08:15:33;;;;;;;;;;;0.00;96.00;;;;;;5184505;28;20058;-37
2022/03/05 08:18:06;;;;;;;;;;;0.00;95.60;;;;;;5167073;28;19933;-36
2022/03/05 08:20:38;;;;;;;;;;;1.30;95.10;;;;;;5186665;28;20301;-37
2022/03/05 08:23:11;;;;;;;;;;;0.50;94.90;;;;;;5184920;28;19936;-36
2022/03/05 08:25:43;;;;;;;;;;;0.10;94.50;;;;;;5182292;28;19921;-36
2022/03/05 08:28:17;;;;;;;;;;;0.10;94.00;;;;;;5184560;28;19936;-37
2022/03/05 08:30:50;;;;;;;;;;;0.50;93.50;;;;;;5174115;28;19932;-38
2022/03/05 08:33:23;;;;;;;;;;;0.90;93.10;;;;;;5182898;28;19929;-35
2022/03/05 08:35:55;;;;;;;;;;;1.60;93.50;;;;;;5186334;28;19948;-37
2022/03/05 08:38:31;;;;;;;;;;;0.50;92.50;;;;;;5183518;28;19925;-36
2022/03/05 08:41:04;;;;;;;;;;;1.10;92.40;;;;;;5167038;28;20443;-37
2022/03/05 08:43:36;;;;;;;;;;;1.80;92.20;;;;;;5180890;28;19925;-40
2022/03/05 08:46:09;;;;;;;;;;;0.50;91.70;;;;;;5186969;28;20304;-35
2022/03/05 08:48:41;;;;;;;;;;;0.80;91.00;;;;;;5187973;28;19921;-38
2022/03/05 08:51:13;;;;;;;;;;;1.10;90.90;;;;;;5187020;28;19936;-37
2022/03/05 08:53:46;;;;;;;;;;;1.00;90.80;;;;;;5188158;28;20587;-37
2022/03/05 08:56:18;;;;;;;;;;;1.20;90.70;;;;;;5166414;28;19921;-36
2022/03/05 08:58:50;;;;;;;;;;;1.60;90.20;;;;;;5168146;28;19928;-37
2022/03/05 09:01:22;;;;;;;;;;;2.10;90.00;;;;;;5185200;28;20408;-37
2022/03/05 09:03:55;;;;;;;;;;;1.10;89.30;;;;;;5183186;28;19925;-36
2022/03/05 09:06:27;;;;;;;;;;;1.90;90.00;;;;;;5183498;28;19944;-36
2022/03/05 09:09:02;;;;;;;;;;;1.30;88.80;;;;;;5173368;28;19932;-36
2022/03/05 09:11:37;;;;;;;;;;;2.30;89.30;;;;;;5183309;28;19925;-37
2022/03/05 09:14:09;;;;;;;;;;;1.80;87.90;;;;;;5184316;28;19922;-37
2022/03/05 09:16:42;;;;;;;;;;;2.40;86.80;;;;;;5182618;28;19955;-36
2022/03/05 09:19:14;;;;;;;;;;;1.30;85.40;;;;;;5187867;28;19932;-36
2022/03/05 09:21:47;;;;;;;;;;;1.80;86.30;;;;;;5184781;28;19925;-37
2022/03/05 09:24:19;;;;;;;;;;;0.90;84.70;;;;;;5181284;28;19925;-37
2022/03/05 09:26:51;;;;;;;;;;;1.40;83.70;;;;;;5184875;28;19921;-37
2022/03/05 09:29:24;;;;;;;;;;;1.60;83.20;;;;;;5184491;28;20397;-35
2022/03/05 09:31:56;;;;;;;;;;;2.20;84.40;;;;;;5185228;28;19959;-37
2022/03/05 09:34:29;;;;;;;;;;;2.10;83.50;;;;;;5183103;28;19921;-37
2022/03/05 09:37:01;;;;;;;;;;;1.80;82.70;;;;;;5179065;28;20316;-37
2022/03/05 09:39:35;;;;;;;;;;;1.80;81.90;;;;;;5167265;28;19925;-35
2022/03/05 09:42:08;;;;;;;;;;;1.80;81.50;;;;;;5184125;28;19935;-37
2022/03/05 09:44:41;;;;;;;;;;;1.20;80.90;;;;;;5183264;28;19936;-37
2022/03/05 09:47:14;;;;;;;;;;;2.30;81.20;;;;;;5183595;28;19936;-37
2022/03/05 09:49:47;;;;;;;;;;;2.40;81.60;;;;;;5181773;28;19941;-37
2022/03/05 09:52:19;;;;;;;;;;;2.00;80.80;;;;;;5184689;28;19922;-37
2022/03/05 09:54:51;;;;;;;;;;;3.50;81.20;;;;;;5180181;28;19921;-37
2022/03/05 09:57:24;;;;;;;;;;;2.80;80.10;;;;;;5183426;28;19925;-37
2022/03/05 09:59:56;;;;;;;;;;;2.30;78.50;;;;;;5183810;28;19933;-37
2022/03/05 10:02:29;;;;;;;;;;;2.30;78.40;;;;;;5181171;28;19928;-37
2022/03/05 10:05:24;;;;;;;;;;;2.70;77.60;;;;;;5184376;28;19921;-37
2022/03/05 10:08:15;;;;;;;;;;;2.50;76.10;;;;;;5185666;28;19929;-37
2022/03/05 10:10:49;;;;;;;;;;;3.00;75.40;;;;;;5184845;28;19955;-39
2022/03/05 10:13:23;;;;;;;;;;;3.10;73.10;;;;;;5182555;28;20285;-36
2022/03/05 10:15:59;;;;;;;;;;;2.70;73.40;;;;;;5181684;28;19922;-37
2022/03/05 10:18:32;;;;;;;;;;;3.10;72.00;;;;;;5183463;28;19928;-37
2022/03/05 10:21:06;;;;;;;;;;;3.80;71.90;;;;;;5180098;28;19936;-37
2022/03/05 10:23:39;;;;;;;;;;;3.20;72.00;;;;;;5182502;28;19921;-37
2022/03/05 10:26:11;;;;;;;;;;;4.20;72.10;;;;;;5160275;28;19932;-37
2022/03/05 10:28:44;;;;;;;;;;;3.60;68.00;;;;;;5182120;28;19930;-37
2022/03/05 10:31:16;;;;;;;;;;;4.20;65.50;;;;;;5186738;28;20336;-36
2022/03/05 10:33:48;;;;;;;;;;;3.70;66.80;;;;;;5184796;28;19925;-37
2022/03/05 10:36:22;;;;;;;;;;;4.80;65.40;;;;;;5173234;28;19921;-37
2022/03/05 10:38:55;;;;;;;;;;;4.00;65.80;;;;;;5185354;28;19925;-36
2022/03/05 10:41:35;;;;;;;;;;;4.50;64.30;;;;;;5186257;28;19945;-37
2022/03/05 10:44:08;;;;;;;;;;;4.00;63.10;;;;;;5187418;28;19936;-37
2022/03/05 10:46:42;;;;;;;;;;;4.00;61.80;;;;;;5172548;28;19929;-37
2022/03/05 10:49:17;;;;;;;;;;;4.60;64.00;;;;;;5187548;28;20004;-37
2022/03/05 10:52:02;;;;;;;;;;;4.10;64.50;;;;;;5188222;28;19921;-36
2022/03/05 10:54:38;;;;;;;;;;;4.10;61.50;;;;;;5182553;28;20440;-35
2022/03/05 10:57:13;;;;;;;;;;;4.20;63.90;;;;;;5207794;23;20480;-43
2022/03/05 10:59:47;;;;;;;;;;;2.80;63.50;;;;;;5203472;28;19924;-41
2022/03/05 11:02:20;;;;;;;;;;;4.10;64.00;;;;;;5203522;28;19924;-43
2022/03/05 11:04:54;;;;;;;;;;;4.50;63.30;;;;;;5203891;28;19921;-46
2022/03/05 11:07:26;;;;;;;;;;;3.90;63.70;;;;;;5175986;28;19933;-42
2022/03/05 11:10:01;;;;;;;;;;;4.20;65.30;;;;;;5157240;28;19932;-42
2022/03/05 11:12:34;;;;;;;;;;;3.90;65.70;;;;;;5188220;28;20378;-40
2022/03/05 11:15:07;;;;;;;;;;;4.00;64.20;;;;;;5188487;28;19928;-43
2022/03/05 11:17:39;;;;;;;;;;;3.40;62.80;;;;;;5187812;28;19925;-43
2022/03/05 11:20:11;;;;;;;;;;;4.30;63.90;;;;;;5170730;28;19930;-45
2022/03/05 11:22:49;;;;;;;;;;;4.60;64.40;;;;;;5189517;28;19921;-50
2022/03/05 11:25:22;;;;;;;;;;;3.80;64.70;;;;;;5185855;28;20028;-43
2022/03/05 11:27:56;;;;;;;;;;;3.70;65.70;;;;;;5184050;28;19944;-43
2022/03/05 11:30:38;;;;;;;;;;;3.70;66.10;;;;;;5184872;28;20423;-41
2022/03/05 11:33:12;;;;;;;;;;;3.60;66.50;;;;;;5184483;28;20381;-46
2022/03/05 11:35:45;;;;;;;;;;;3.50;65.50;;;;;;5186814;28;20177;-44
2022/03/05 11:38:36;;;;;;;;;;;3.50;64.90;;;;;;5181821;28;19925;-45
2022/03/05 11:41:20;;;;;;;;;;;3.60;65.00;;;;;;5187313;28;19929;-39
2022/03/05 11:43:53;;;;;;;;;;;3.50;65.20;;;;;;5186834;28;19950;-40
2022/03/05 11:46:27;;;;;;;;;;;3.40;65.00;;;;;;5183755;28;19922;-41
2022/03/05 11:49:04;;;;;;;;;;;3.40;64.40;;;;;;5183945;28;20312;-48
2022/03/05 11:51:56;;;;;;;;;;;3.50;65.00;;;;;;5184791;28;19952;-47
2022/03/05 11:54:28;;;;;;;;;;;3.70;63.90;;;;;;5184818;28;19924;-40
2022/03/05 11:57:13;;;;;;;;;;;3.90;63.40;;;;;;5186891;28;20483;-45
2022/03/05 11:59:51;;;;;;;;;;;4.00;63.00;;;;;;5186099;28;20397;-42
2022/03/05 12:02:37;;;;;;;;;;;4.20;61.60;;;;;;5186134;28;19925;-42
2022/03/05 12:05:09;;;;;;;;;;;4.20;61.80;;;;;;5185309;28;20396;-42
2022/03/05 12:07:43;;;;;;;;;;;4.30;62.40;;;;;;5186620;28;19921;-47
2022/03/05 12:10:15;;;;;;;;;;;4.40;61.00;;;;;;5165839;28;20425;-39
2022/03/05 12:12:55;;;;;;;;;;;4.90;62.00;;;;;;5184024;28;19924;-44
2022/03/05 12:15:35;;;;;;;;;;;4.30;60.60;;;;;;5183002;28;19921;-44
2022/03/05 12:18:09;;;;;;;;;;;4.30;62.70;;;;;;5182455;28;19921;-46
2022/03/05 12:20:45;;;;;;;;;;;4.30;60.80;;;;;;5185105;28;19925;-41
2022/03/05 12:23:19;;;;;;;;;;;4.20;60.80;;;;;;5168822;28;19932;-39
2022/03/05 12:25:51;;;;;;;;;;;4.50;62.20;;;;;;5183388;28;19959;-45
2022/03/05 12:28:24;;;;;;;;;;;4.50;61.30;;;;;;5186642;28;20301;-45
2022/03/05 12:30:58;;;;;;;;;;;4.60;60.50;;;;;;5181290;28;19925;-44
2022/03/05 12:33:32;;;;;;;;;;;4.60;58.60;;;;;;5186591;28;19925;-43
2022/03/05 12:36:05;;;;;;;;;;;4.80;60.30;;;;;;5183705;28;19928;-44
2022/03/05 12:38:37;;;;;;;;;;;4.70;60.20;;;;;;5186878;28;19925;-42
2022/03/05 12:41:09;;;;;;;;;;;4.70;59.00;;;;;;5182589;28;20416;-46
2022/03/05 12:43:42;;;;;;;;;;;4.80;58.50;;;;;;5169080;28;19928;-49
2022/03/05 12:46:15;;;;;;;;;;;4.60;58.30;;;;;;5185846;28;19928;-44
2022/03/05 12:48:47;;;;;;;;;;;4.50;58.40;;;;;;5182829;28;20298;-45
2022/03/05 12:51:22;;;;;;;;;;;4.30;58.80;;;;;;5185695;28;19936;-42
2022/03/05 12:54:01;;;;;;;;;;;4.20;60.00;;;;;;5183764;28;19925;-42
2022/03/05 12:56:35;;;;;;;;;;;4.10;59.40;;;;;;5183191;28;20486;-41
2022/03/05 12:59:07;;;;;;;;;;;4.20;61.70;;;;;;5188560;28;19931;-41
2022/03/05 13:01:39;;;;;;;;;;;4.20;60.20;;;;;;5183930;28;19936;-42
2022/03/05 13:04:13;;;;;;;;;;;4.40;59.80;;;;;;5186109;28;19921;-40
2022/03/05 13:06:46;;;;;;;;;;;4.50;60.10;;;;;;5186133;28;20396;-40
2022/03/05 13:09:19;;;;;;;;;;;4.60;57.80;;;;;;5186384;28;20395;-44
2022/03/05 13:12:02;;;;;;;;;;;4.70;59.00;;;;;;5187571;28;19932;-48
2022/03/05 13:14:34;;;;;;;;;;;4.60;58.40;;;;;;5184168;28;19948;-40
2022/03/05 13:17:08;;;;;;;;;;;4.60;58.10;;;;;;5188244;28;19936;-44
2022/03/05 13:19:42;;;;;;;;;;;4.60;58.70;;;;;;5179325;28;19955;-45
2022/03/05 13:22:23;;;;;;;;;;;4.50;59.60;;;;;;5188503;28;19924;-42
2022/03/05 13:24:56;;;;;;;;;;;4.50;58.80;;;;;;5182670;28;19932;-40
2022/03/05 13:27:28;;;;;;;;;;;4.50;59.10;;;;;;5186255;28;19925;-41
2022/03/05 13:30:08;;;;;;;;;;;4.30;59.30;;;;;;5182847;28;19928;-44
2022/03/05 13:32:47;;;;;;;;;;;4.20;60.20;;;;;;5181594;28;20276;-49
2022/03/05 13:35:20;;;;;;;;;;;4.20;60.20;;;;;;5183513;28;19925;-44
2022/03/05 13:37:52;;;;;;;;;;;4.10;60.80;;;;;;5182555;28;19928;-43
2022/03/05 13:40:26;;;;;;;;;;;4.30;59.30;;;;;;5180974;28;19921;-43
2022/03/05 13:42:58;;;;;;;;;;;4.40;60.90;;;;;;5163839;28;19936;-45
2022/03/05 13:45:30;;;;;;;;;;;4.40;60.20;;;;;;5172839;28;19921;-44
2022/03/05 13:48:05;;;;;;;;;;;4.30;59.70;;;;;;5183067;28;20154;-47
2022/03/05 13:50:40;;;;;;;;;;;4.30;60.10;;;;;;5182107;28;19964;-45
2022/03/05 13:53:12;;;;;;;;;;;4.50;62.40;;;;;;5183675;28;19941;-43
2022/03/05 13:55:45;;;;;;;;;;;4.60;61.00;;;;;;5181171;28;20301;-48
2022/03/05 13:58:21;;;;;;;;;;;4.80;62.60;;;;;;5183767;28;19948;-50
2022/03/05 14:00:53;;;;;;;;;;;4.90;59.70;;;;;;5186146;28;19928;-45
2022/03/05 14:03:25;;;;;;;;;;;5.00;57.00;;;;;;5183845;28;19928;-45
2022/03/05 14:05:58;;;;;;;;;;;5.10;61.10;;;;;;5183275;28;19921;-42
2022/03/05 14:08:44;;;;;;;;;;;5.10;59.70;;;;;;5185469;28;19925;-44
2022/03/05 14:11:17;;;;;;;;;;;5.20;60.80;;;;;;5184341;28;21119;-45
2022/03/05 14:13:51;;;;;;;;;;;5.10;58.80;;;;;;5182408;28;19926;-45
2022/03/05 14:16:36;;;;;;;;;;;5.10;58.50;;;;;;5182564;28;19948;-45
2022/03/05 14:19:25;;;;;;;;;;;5.00;57.30;;;;;;5182849;28;19929;-43
2022/03/05 14:22:11;;;;;;;;;;;5.00;59.00;;;;;;5184294;28;19921;-44
2022/03/05 14:24:43;;;;;;;;;;;4.80;57.80;;;;;;5167508;28;20562;-45
2022/03/05 14:27:16;;;;;;;;;;;4.80;58.00;;;;;;5184852;28;19932;-41
2022/03/05 14:29:48;;;;;;;;;;;4.80;58.10;;;;;;5185032;28;20425;-43
2022/03/05 14:32:20;;;;;;;;;;;4.60;57.70;;;;;;5184542;28;20304;-41
2022/03/05 14:34:53;;;;;;;;;;;4.50;56.80;;;;;;5185175;28;19935;-45
2022/03/05 14:37:25;;;;;;;;;;;4.30;58.10;;;;;;5183010;28;19930;-48
2022/03/05 14:39:57;;;;;;;;;;;4.30;57.40;;;;;;5181964;28;19925;-43
2022/03/05 14:42:30;;;;;;;;;;;4.50;58.10;;;;;;5183191;28;19937;-43
2022/03/05 14:45:03;;;;;;;;;;;4.10;57.80;;;;;;5181556;28;19928;-46
2022/03/05 14:47:36;;;;;;;;;;;4.20;59.10;;;;;;5178445;28;19925;-42
2022/03/05 14:50:09;;;;;;;;;;;4.00;58.10;;;;;;5182899;28;19921;-42
2022/03/05 14:52:42;;;;;;;;;;;4.10;59.70;;;;;;5179069;28;19925;-44
2022/03/05 14:55:15;;;;;;;;;;;4.20;59.50;;;;;;5180792;28;19944;-44
2022/03/05 14:58:06;;;;;;;;;;;4.30;58.90;;;;;;5180915;28;20301;-43
2022/03/05 15:00:39;;;;;;;;;;;4.20;58.70;;;;;;5184304;28;20450;-42
2022/03/05 15:03:12;;;;;;;;;;;4.30;59.50;;;;;;5181034;28;19925;-47
2022/03/05 15:05:44;;;;;;;;;;;4.40;58.70;;;;;;5183219;28;20491;-41
2022/03/05 15:08:17;;;;;;;;;;;4.40;57.80;;;;;;5184295;28;19932;-45
2022/03/05 15:10:50;;;;;;;;;;;4.50;58.10;;;;;;5182260;28;19925;-50
2022/03/05 15:13:23;;;;;;;;;;;4.40;59.30;;;;;;5184937;28;19924;-45
2022/03/05 15:15:56;;;;;;;;;;;4.40;58.90;;;;;;5152918;28;19944;-43
2022/03/05 15:18:29;;;;;;;;;;;4.40;58.70;;;;;;5183664;28;19921;-48
2022/03/05 15:21:01;;;;;;;;;;;4.40;61.40;;;;;;5189423;28;20426;-42
2022/03/05 15:23:34;;;;;;;;;;;4.50;58.80;;;;;;5188047;28;19921;-41
2022/03/05 15:26:06;;;;;;;;;;;4.70;60.80;;;;;;5173217;28;19929;-43
2022/03/05 15:28:41;;;;;;;;;;;4.70;58.40;;;;;;5134709;28;19924;-46
2022/03/05 15:31:15;;;;;;;;;;;5.10;58.60;;;;;;5153567;28;19929;-43
2022/03/05 15:33:47;;;;;;;;;;;4.70;58.50;;;;;;5167526;28;19925;-43
2022/03/05 15:36:19;;;;;;;;;;;4.70;58.90;;;;;;5166247;28;19929;-43
2022/03/05 15:38:52;;;;;;;;;;;4.50;58.00;;;;;;5153078;28;21540;-41
2022/03/05 15:41:24;;;;;;;;;;;4.40;58.00;;;;;;5173959;28;19921;-50
2022/03/05 15:43:56;;;;;;;;;;;4.50;57.60;;;;;;5171634;28;20453;-50
2022/03/05 15:46:29;;;;;;;;;;;4.30;57.50;;;;;;5175574;28;19936;-52
2022/03/05 15:49:06;;;;;;;;;;;4.20;58.70;;;;;;5159381;28;19932;-47
2022/03/05 15:51:39;;;;;;;;;;;4.10;59.10;;;;;;5152498;28;19929;-43
2022/03/05 15:54:12;;;;;;;;;;;4.10;59.40;;;;;;5160026;28;20270;-46
2022/03/05 15:56:45;;;;;;;;;;;4.00;59.00;;;;;;5164474;28;19937;-44
2022/03/05 15:59:18;;;;;;;;;;;4.00;60.50;;;;;;5161478;28;20302;-41
2022/03/05 16:01:50;;;;;;;;;;;3.90;59.60;;;;;;5161613;28;20372;-46
2022/03/05 16:04:22;;;;;;;;;;;4.00;59.30;;;;;;5155813;28;19925;-42
2022/03/05 16:06:55;;;;;;;;;;;3.90;59.30;;;;;;5170362;28;19940;-41
2022/03/05 16:09:27;;;;;;;;;;;3.90;59.40;;;;;;5164443;28;19922;-45
2022/03/05 16:11:59;;;;;;;;;;;3.90;59.70;;;;;;5168127;28;20471;-45
2022/03/05 16:14:31;;;;;;;;;;;3.80;59.00;;;;;;5161924;28;19929;-41
2022/03/05 16:17:05;;;;;;;;;;;3.80;59.90;;;;;;5166799;28;19932;-48
2022/03/05 16:19:38;;;;;;;;;;;3.80;60.40;;;;;;5168973;28;19955;-44
2022/03/05 16:22:10;;;;;;;;;;;3.80;60.60;;;;;;5161654;28;19928;-45
2022/03/05 16:24:42;;;;;;;;;;;3.80;61.30;;;;;;5162690;28;19941;-44
2022/03/05 16:27:15;;;;;;;;;;;3.80;60.90;;;;;;5165940;28;19925;-49
2022/03/05 16:29:47;;;;;;;;;;;3.80;60.80;;;;;;5162989;28;20756;-47
2022/03/05 16:32:19;;;;;;;;;;;3.80;60.00;;;;;;5144676;28;19950;-45
2022/03/05 16:34:52;;;;;;;;;;;3.70;60.00;;;;;;5156004;28;19921;-42
2022/03/05 16:37:24;;;;;;;;;;;3.70;61.00;;;;;;5161293;28;20408;-44
2022/03/05 16:40:17;;;;;;;;;;;3.70;61.20;;;;;;5161450;28;20791;-47
2022/03/05 16:42:51;;;;;;;;;;;3.70;60.80;;;;;;5163730;28;20412;-46
2022/03/05 16:45:24;;;;;;;;;;;3.80;61.10;;;;;;5159361;28;19929;-46
2022/03/05 16:47:57;;;;;;;;;;;3.60;61.90;;;;;;5162062;28;19931;-48
2022/03/05 16:50:29;;;;;;;;;;;3.70;61.50;;;;;;5152180;28;19936;-44
2022/03/05 16:53:01;;;;;;;;;;;3.60;61.80;;;;;;5163292;28;19936;-47
2022/03/05 16:55:34;;;;;;;;;;;3.50;62.70;;;;;;5167348;28;19924;-48
2022/03/05 16:58:06;;;;;;;;;;;3.40;63.70;;;;;;5161915;23;20396;-43
2022/03/05 17:00:38;;;;;;;;;;;3.50;64.20;;;;;;5135253;28;20399;-40
2022/03/05 17:03:11;;;;;;;;;;;3.00;63.30;;;;;;5149529;28;20687;-43
2022/03/05 17:05:43;;;;;;;;;;;3.40;64.70;;;;;;5148182;28;19947;-41
2022/03/05 17:08:15;;;;;;;;;;;3.40;63.90;;;;;;5164014;28;21203;-42
2022/03/05 17:10:48;;;;;;;;;;;2.00;63.50;;;;;;5146107;28;19936;-39
2022/03/05 17:13:20;;;;;;;;;;;3.40;64.90;;;;;;5153245;28;21000;-39
2022/03/05 17:15:52;;;;;;;;;;;3.30;64.40;;;;;;5138550;28;20189;-38
2022/03/05 17:18:25;;;;;;;;;;;3.30;64.30;;;;;;5154675;28;19925;-41
2022/03/05 17:20:57;;;;;;;;;;;3.20;65.40;;;;;;5147115;28;19973;-37
2022/03/05 17:23:30;;;;;;;;;;;3.30;65.10;;;;;;5144824;28;20275;-39
2022/03/05 17:26:02;;;;;;;;;;;3.30;66.20;;;;;;5140588;28;19952;-38
2022/03/05 17:28:34;;;;;;;;;;;3.20;65.30;;;;;;5148673;28;19929;-40
2022/03/05 17:31:07;;;;;;;;;;;3.10;65.40;;;;;;5159712;28;19932;-38
2022/03/05 17:33:59;;;;;;;;;;;3.00;65.40;;;;;;5125869;28;19929;-42
2022/03/05 17:36:34;;;;;;;;;;;3.00;65.70;;;;;;5154334;28;19925;-40
2022/03/05 17:39:06;;;;;;;;;;;2.90;66.30;;;;;;5145237;28;19929;-41
2022/03/05 17:41:38;;;;;;;;;;;2.90;66.10;;;;;;5139945;28;19926;-38
2022/03/05 17:44:11;;;;;;;;;;;2.90;66.80;;;;;;5134803;28;20392;-40
2022/03/05 17:46:43;;;;;;;;;;;2.90;66.50;;;;;;5150515;28;19936;-39
2022/03/05 17:49:15;;;;;;;;;;;2.90;66.10;;;;;;5135042;28;20457;-39
2022/03/05 17:51:52;;;;;;;;;;;2.90;66.30;;;;;;5129237;28;21202;-41
2022/03/05 17:54:25;;;;;;;;;;;2.80;67.10;;;;;;5142144;28;20581;-39
2022/03/05 17:56:57;;;;;;;;;;;2.80;67.00;;;;;;5148474;28;19930;-39
2022/03/05 17:59:30;;;;;;;;;;;2.70;67.70;;;;;;5115023;28;20382;-39
2022/03/05 18:02:02;;;;;;;;;;;2.60;66.80;;;;;;5163169;28;19925;-39
2022/03/05 18:04:35;;;;;;;;;;;2.60;67.20;;;;;;5151035;28;19930;-38
2022/03/05 18:07:07;;;;;;;;;;;2.60;67.40;;;;;;5136193;28;19929;-39
2022/03/05 18:09:39;;;;;;;;;;;2.60;67.40;;;;;;5158789;28;19936;-43
2022/03/05 18:12:11;;;;;;;;;;;2.50;67.60;;;;;;5141629;28;20480;-40
2022/03/05 18:14:44;;;;;;;;;;;2.60;68.50;;;;;;5156919;28;19938;-40
2022/03/05 18:17:16;;;;;;;;;;;2.60;67.40;;;;;;5166890;28;19925;-37
2022/03/05 18:19:48;;;;;;;;;;;2.60;67.30;;;;;;5132521;28;19929;-40
2022/03/05 18:22:21;;;;;;;;;;;2.50;67.50;;;;;;5157005;28;19932;-41
2022/03/05 18:24:53;;;;;;;;;;;2.40;67.80;;;;;;5155245;28;19926;-38
2022/03/05 18:27:26;;;;;;;;;;;2.40;67.60;;;;;;5159998;28;19925;-39
2022/03/05 18:29:58;;;;;;;;;;;2.70;67.90;;;;;;5155149;28;19925;-38
2022/03/05 18:32:31;;;;;;;;;;;2.40;67.80;;;;;;5156426;28;20440;-38
2022/03/05 18:35:04;;;;;;;;;;;2.40;68.00;;;;;;5160655;28;19925;-37
2022/03/05 18:37:37;;;;;;;;;;;2.40;68.30;;;;;;5157847;28;19925;-37
2022/03/05 18:40:09;;;;;;;;;;;2.40;68.30;;;;;;5156383;28;19925;-40
2022/03/05 18:42:42;;;;;;;;;;;2.40;68.10;;;;;;5161516;28;19933;-39
2022/03/05 18:45:14;;;;;;;;;;;2.40;68.50;;;;;;5162673;28;19933;-37
2022/03/05 18:47:46;;;;;;;;;;;2.50;69.10;;;;;;5157572;28;19933;-37
2022/03/05 18:50:19;;;;;;;;;;;2.40;69.40;;;;;;5160497;28;19932;-38
2022/03/05 18:52:51;;;;;;;;;;;2.40;68.30;;;;;;5129579;28;19929;-39
2022/03/05 18:55:23;;;;;;;;;;;2.30;69.10;;;;;;5160330;28;20265;-35
2022/03/05 18:57:56;;;;;;;;;;;2.30;68.70;;;;;;5163744;28;19933;-36
2022/03/05 19:00:28;;;;;;;;;;;2.40;68.60;;;;;;5167124;28;19929;-36
2022/03/05 19:03:00;;;;;;;;;;;2.30;69.30;;;;;;5147508;28;19929;-35
2022/03/05 19:05:34;;;;;;;;;;;2.40;69.60;;;;;;5159791;28;20393;-34
2022/03/05 19:08:16;;;;;;;;;;;2.40;69.80;;;;;;5153544;28;20313;-36
2022/03/05 19:10:49;;;;;;;;;;;2.40;69.10;;;;;;4830928;28;10000043;-35
2022/03/05 19:13:22;;;;;;;;;;;2.30;68.60;;;;;;4466709;28;10001017;-35
2022/03/05 19:15:55;;;;;;;;;;;2.40;69.60;;;;;;5152218;28;20404;-35
2022/03/05 19:18:27;;;;;;;;;;;2.40;70.50;;;;;;5154311;28;19929;-34
2022/03/05 19:21:00;;;;;;;;;;;2.30;69.00;;;;;;5147614;28;19925;-36
2022/03/05 19:23:32;;;;;;;;;;;2.40;69.00;;;;;;5152035;28;20460;-35
2022/03/05 19:26:04;;;;;;;;;;;2.60;69.40;;;;;;5150342;28;20214;-35
2022/03/05 19:28:37;;;;;;;;;;;2.40;69.30;;;;;;5156413;28;19936;-34
2022/03/05 19:31:09;;;;;;;;;;;2.40;70.40;;;;;;5160612;28;19926;-35
2022/03/05 19:33:41;;;;;;;;;;;2.50;70.30;;;;;;5156823;28;20331;-34
2022/03/05 19:36:14;;;;;;;;;;;2.50;69.90;;;;;;5127758;28;19936;-34
2022/03/05 19:38:46;;;;;;;;;;;2.40;69.60;;;;;;5155389;28;19936;-34
2022/03/05 19:41:19;;;;;;;;;;;2.40;69.00;;;;;;5153201;28;19925;-35
2022/03/05 19:43:53;;;;;;;;;;;2.40;70.20;;;;;;5149990;28;19925;-35
2022/03/05 19:46:25;;;;;;;;;;;2.50;69.50;;;;;;5145633;28;19932;-34
2022/03/05 19:48:58;;;;;;;;;;;2.40;69.50;;;;;;5138285;28;20499;-35
2022/03/05 19:51:30;;;;;;;;;;;2.30;69.60;;;;;;5118910;28;20401;-36
2022/03/05 19:54:03;;;;;;;;;;;2.40;69.90;;;;;;5150467;28;19948;-34
2022/03/05 19:56:37;;;;;;;;;;;2.40;70.60;;;;;;5133761;28;19929;-35
2022/03/05 19:59:09;;;;;;;;;;;2.40;70.10;;;;;;5138606;28;19940;-34